sensor_id;sensor_type;location;lat;lon;timestamp;P1;durP1;ratioP1;P2;durP2;ratioP2
84307;SDS011;74486;52.070;5.128;2024-02-21T00:02:24;14.73;;;3.65;;
84307;SDS011;74486;52.070;5.128;2024-02-21T00:04:50;7.65;;;2.78;;
84307;SDS011;74486;52.070;5.128;2024-02-21T00:07:15;12.10;;;3.20;;
84307;SDS011;74486;52.070;5.128;2024-02-21T00:09:41;10.90;;;3.20;;
84307;SDS011;74486;52.070;5.128;2024-02-21T00:12:07;11.55;;;2.90;;
84307;SDS011;74486;52.070;5.128;2024-02-21T00:14:32;6.80;;;2.72;;
84307;SDS011;74486;52.070;5.128;2024-02-21T00:16:58;11.40;;;2.83;;
84307;SDS011;74486;52.070;5.128;2024-02-21T00:19:25;11.90;;;2.90;;
84307;SDS011;74486;52.070;5.128;2024-02-21T00:21:50;8.60;;;2.55;;
84307;SDS011;74486;52.070;5.128;2024-02-21T00:24:15;9.73;;;3.00;;
84307;SDS011;74486;52.070;5.128;2024-02-21T00:26:41;10.15;;;3.20;;
84307;SDS011;74486;52.070;5.128;2024-02-21T00:29:06;16.30;;;4.65;;
84307;SDS011;74486;52.070;5.128;2024-02-21T00:31:32;5.88;;;2.65;;
84307;SDS011;74486;52.070;5.128;2024-02-21T00:33:57;8.63;;;3.13;;
84307;SDS011;74486;52.070;5.128;2024-02-21T00:36:24;8.45;;;3.17;;
84307;SDS011;74486;52.070;5.128;2024-02-21T00:38:49;6.60;;;2.67;;
84307;SDS011;74486;52.070;5.128;2024-02-21T00:41:15;12.05;;;2.70;;
84307;SDS011;74486;52.070;5.128;2024-02-21T00:43:40;10.02;;;3.13;;
84307;SDS011;74486;52.070;5.128;2024-02-21T00:46:06;9.90;;;2.83;;
84307;SDS011;74486;52.070;5.128;2024-02-21T00:48:31;7.30;;;4.10;;
84307;SDS011;74486;52.070;5.128;2024-02-21T00:50:57;15.32;;;3.45;;
84307;SDS011;74486;52.070;5.128;2024-02-21T00:53:24;9.93;;;3.60;;
84307;SDS011;74486;52.070;5.128;2024-02-21T00:55:49;9.25;;;3.08;;
84307;SDS011;74486;52.070;5.128;2024-02-21T00:58:14;8.10;;;3.08;;
84307;SDS011;74486;52.070;5.128;2024-02-21T01:00:40;9.00;;;3.00;;
84307;SDS011;74486;52.070;5.128;2024-02-21T01:03:05;9.27;;;3.30;;
84307;SDS011;74486;52.070;5.128;2024-02-21T01:05:31;11.55;;;2.40;;
84307;SDS011;74486;52.070;5.128;2024-02-21T01:07:56;8.52;;;2.78;;
84307;SDS011;74486;52.070;5.128;2024-02-21T01:10:23;7.53;;;2.85;;
84307;SDS011;74486;52.070;5.128;2024-02-21T01:12:49;10.40;;;2.50;;
84307;SDS011;74486;52.070;5.128;2024-02-21T01:15:14;9.70;;;3.25;;
84307;SDS011;74486;52.070;5.128;2024-02-21T01:17:39;15.27;;;2.88;;
84307;SDS011;74486;52.070;5.128;2024-02-21T01:20:05;9.85;;;3.08;;
84307;SDS011;74486;52.070;5.128;2024-02-21T01:22:32;9.10;;;3.33;;
84307;SDS011;74486;52.070;5.128;2024-02-21T01:24:57;16.05;;;4.60;;
84307;SDS011;74486;52.070;5.128;2024-02-21T01:27:24;8.63;;;2.97;;
84307;SDS011;74486;52.070;5.128;2024-02-21T01:29:50;14.18;;;4.10;;
84307;SDS011;74486;52.070;5.128;2024-02-21T01:32:15;9.20;;;3.53;;
84307;SDS011;74486;52.070;5.128;2024-02-21T01:34:41;11.98;;;3.53;;
84307;SDS011;74486;52.070;5.128;2024-02-21T01:37:06;7.70;;;3.85;;
84307;SDS011;74486;52.070;5.128;2024-02-21T01:39:31;11.38;;;4.13;;
84307;SDS011;74486;52.070;5.128;2024-02-21T01:41:57;16.15;;;3.90;;
84307;SDS011;74486;52.070;5.128;2024-02-21T01:44:24;13.90;;;4.47;;
84307;SDS011;74486;52.070;5.128;2024-02-21T01:46:49;14.27;;;4.10;;
84307;SDS011;74486;52.070;5.128;2024-02-21T01:49:15;11.68;;;3.47;;
84307;SDS011;74486;52.070;5.128;2024-02-21T01:51:41;9.93;;;3.42;;
84307;SDS011;74486;52.070;5.128;2024-02-21T01:54:06;7.22;;;4.25;;
84307;SDS011;74486;52.070;5.128;2024-02-21T01:56:32;10.65;;;3.50;;
84307;SDS011;74486;52.070;5.128;2024-02-21T01:58:57;10.48;;;3.88;;
84307;SDS011;74486;52.070;5.128;2024-02-21T02:01:24;8.90;;;3.85;;
84307;SDS011;74486;52.070;5.128;2024-02-21T02:03:50;13.40;;;4.72;;
84307;SDS011;74486;52.070;5.128;2024-02-21T02:06:16;12.50;;;5.60;;
84307;SDS011;74486;52.070;5.128;2024-02-21T02:08:41;11.05;;;4.05;;
84307;SDS011;74486;52.070;5.128;2024-02-21T02:11:07;12.88;;;5.30;;
84307;SDS011;74486;52.070;5.128;2024-02-21T02:13:33;14.68;;;4.63;;
84307;SDS011;74486;52.070;5.128;2024-02-21T02:15:58;16.65;;;4.57;;
84307;SDS011;74486;52.070;5.128;2024-02-21T02:18:25;16.42;;;4.65;;
84307;SDS011;74486;52.070;5.128;2024-02-21T02:20:51;9.77;;;4.47;;
84307;SDS011;74486;52.070;5.128;2024-02-21T02:23:20;13.95;;;4.85;;
84307;SDS011;74486;52.070;5.128;2024-02-21T02:25:47;11.32;;;4.55;;
84307;SDS011;74486;52.070;5.128;2024-02-21T02:28:12;10.07;;;5.45;;
84307;SDS011;74486;52.070;5.128;2024-02-21T02:30:38;9.10;;;4.70;;
84307;SDS011;74486;52.070;5.128;2024-02-21T02:33:04;11.52;;;4.40;;
84307;SDS011;74486;52.070;5.128;2024-02-21T02:35:29;13.85;;;5.10;;
84307;SDS011;74486;52.070;5.128;2024-02-21T02:37:55;14.55;;;4.57;;
84307;SDS011;74486;52.070;5.128;2024-02-21T02:40:22;13.55;;;4.25;;
84307;SDS011;74486;52.070;5.128;2024-02-21T02:42:48;10.00;;;4.32;;
84307;SDS011;74486;52.070;5.128;2024-02-21T02:45:14;10.77;;;3.15;;
84307;SDS011;74486;52.070;5.128;2024-02-21T02:47:39;14.10;;;3.83;;
84307;SDS011;74486;52.070;5.128;2024-02-21T02:50:06;11.52;;;3.90;;
84307;SDS011;74486;52.070;5.128;2024-02-21T02:52:32;19.83;;;5.20;;
84307;SDS011;74486;52.070;5.128;2024-02-21T02:54:57;9.25;;;4.70;;
84307;SDS011;74486;52.070;5.128;2024-02-21T02:57:24;15.70;;;3.92;;
84307;SDS011;74486;52.070;5.128;2024-02-21T02:59:50;12.50;;;4.70;;
84307;SDS011;74486;52.070;5.128;2024-02-21T03:02:16;10.27;;;3.80;;
84307;SDS011;74486;52.070;5.128;2024-02-21T03:04:42;9.07;;;4.03;;
84307;SDS011;74486;52.070;5.128;2024-02-21T03:07:07;13.20;;;4.45;;
84307;SDS011;74486;52.070;5.128;2024-02-21T03:09:32;15.18;;;4.40;;
84307;SDS011;74486;52.070;5.128;2024-02-21T03:11:58;11.48;;;4.43;;
84307;SDS011;74486;52.070;5.128;2024-02-21T03:14:25;8.30;;;4.43;;
84307;SDS011;74486;52.070;5.128;2024-02-21T03:16:51;15.82;;;4.60;;
84307;SDS011;74486;52.070;5.128;2024-02-21T03:19:16;13.65;;;4.32;;
84307;SDS011;74486;52.070;5.128;2024-02-21T03:21:42;9.75;;;4.47;;
84307;SDS011;74486;52.070;5.128;2024-02-21T03:24:07;12.88;;;4.13;;
84307;SDS011;74486;52.070;5.128;2024-02-21T03:26:32;14.98;;;4.47;;
84307;SDS011;74486;52.070;5.128;2024-02-21T03:28:58;10.45;;;5.43;;
84307;SDS011;74486;52.070;5.128;2024-02-21T03:31:25;7.57;;;3.60;;
84307;SDS011;74486;52.070;5.128;2024-02-21T03:33:50;12.63;;;4.28;;
84307;SDS011;74486;52.070;5.128;2024-02-21T03:36:16;17.92;;;4.53;;
84307;SDS011;74486;52.070;5.128;2024-02-21T03:38:41;10.32;;;4.95;;
84307;SDS011;74486;52.070;5.128;2024-02-21T03:41:06;11.60;;;4.28;;
84307;SDS011;74486;52.070;5.128;2024-02-21T03:43:32;10.75;;;4.70;;
84307;SDS011;74486;52.070;5.128;2024-02-21T03:45:57;11.35;;;4.60;;
84307;SDS011;74486;52.070;5.128;2024-02-21T03:48:24;9.27;;;4.15;;
84307;SDS011;74486;52.070;5.128;2024-02-21T03:50:51;11.68;;;4.68;;
84307;SDS011;74486;52.070;5.128;2024-02-21T03:53:16;14.20;;;5.00;;
84307;SDS011;74486;52.070;5.128;2024-02-21T03:55:42;15.93;;;4.65;;
84307;SDS011;74486;52.070;5.128;2024-02-21T03:58:07;7.28;;;4.20;;
84307;SDS011;74486;52.070;5.128;2024-02-21T04:00:33;6.93;;;4.47;;
84307;SDS011;74486;52.070;5.128;2024-02-21T04:02:58;13.75;;;4.13;;
84307;SDS011;74486;52.070;5.128;2024-02-21T04:05:25;8.35;;;4.07;;
84307;SDS011;74486;52.070;5.128;2024-02-21T04:07:50;12.05;;;4.78;;
84307;SDS011;74486;52.070;5.128;2024-02-21T04:10:16;13.15;;;4.20;;
84307;SDS011;74486;52.070;5.128;2024-02-21T04:12:41;8.52;;;4.78;;
84307;SDS011;74486;52.070;5.128;2024-02-21T04:15:07;12.70;;;4.97;;
84307;SDS011;74486;52.070;5.128;2024-02-21T04:17:33;12.25;;;3.70;;
84307;SDS011;74486;52.070;5.128;2024-02-21T04:20:01;13.20;;;4.53;;
84307;SDS011;74486;52.070;5.128;2024-02-21T04:22:29;10.77;;;5.40;;
84307;SDS011;74486;52.070;5.128;2024-02-21T04:24:55;10.68;;;3.95;;
84307;SDS011;74486;52.070;5.128;2024-02-21T04:27:20;12.00;;;4.32;;
84307;SDS011;74486;52.070;5.128;2024-02-21T04:29:45;10.32;;;5.25;;
84307;SDS011;74486;52.070;5.128;2024-02-21T04:32:11;11.23;;;5.07;;
84307;SDS011;74486;52.070;5.128;2024-02-21T04:34:36;10.68;;;5.22;;
84307;SDS011;74486;52.070;5.128;2024-02-21T04:37:02;13.80;;;6.03;;
84307;SDS011;74486;52.070;5.128;2024-02-21T04:39:29;10.45;;;4.40;;
84307;SDS011;74486;52.070;5.128;2024-02-21T04:41:54;12.13;;;4.38;;
84307;SDS011;74486;52.070;5.128;2024-02-21T04:44:19;11.30;;;5.75;;
84307;SDS011;74486;52.070;5.128;2024-02-21T04:46:45;10.57;;;5.18;;
84307;SDS011;74486;52.070;5.128;2024-02-21T04:49:10;11.13;;;4.82;;
84307;SDS011;74486;52.070;5.128;2024-02-21T04:51:36;14.73;;;5.68;;
84307;SDS011;74486;52.070;5.128;2024-02-21T04:54:01;10.35;;;5.47;;
84307;SDS011;74486;52.070;5.128;2024-02-21T04:56:28;10.93;;;6.47;;
84307;SDS011;74486;52.070;5.128;2024-02-21T04:58:54;12.63;;;6.22;;
84307;SDS011;74486;52.070;5.128;2024-02-21T05:01:19;12.68;;;5.40;;
84307;SDS011;74486;52.070;5.128;2024-02-21T05:03:44;16.10;;;6.45;;
84307;SDS011;74486;52.070;5.128;2024-02-21T05:06:10;11.98;;;5.88;;
84307;SDS011;74486;52.070;5.128;2024-02-21T05:08:35;14.43;;;7.05;;
84307;SDS011;74486;52.070;5.128;2024-02-21T05:11:01;14.30;;;6.43;;
84307;SDS011;74486;52.070;5.128;2024-02-21T05:13:28;13.55;;;5.75;;
84307;SDS011;74486;52.070;5.128;2024-02-21T05:15:53;14.38;;;7.13;;
84307;SDS011;74486;52.070;5.128;2024-02-21T05:18:19;12.13;;;5.22;;
84307;SDS011;74486;52.070;5.128;2024-02-21T05:20:44;12.18;;;5.00;;
84307;SDS011;74486;52.070;5.128;2024-02-21T05:23:10;12.85;;;5.90;;
84307;SDS011;74486;52.070;5.128;2024-02-21T05:25:35;12.45;;;5.88;;
84307;SDS011;74486;52.070;5.128;2024-02-21T05:28:01;13.23;;;6.30;;
84307;SDS011;74486;52.070;5.128;2024-02-21T05:30:28;10.05;;;6.18;;
84307;SDS011;74486;52.070;5.128;2024-02-21T05:32:53;11.50;;;5.68;;
84307;SDS011;74486;52.070;5.128;2024-02-21T05:35:18;15.52;;;5.80;;
84307;SDS011;74486;52.070;5.128;2024-02-21T05:37:45;13.05;;;5.07;;
84307;SDS011;74486;52.070;5.128;2024-02-21T05:40:11;11.10;;;5.93;;
84307;SDS011;74486;52.070;5.128;2024-02-21T05:42:37;10.05;;;5.90;;
84307;SDS011;74486;52.070;5.128;2024-02-21T05:45:02;10.32;;;5.38;;
84307;SDS011;74486;52.070;5.128;2024-02-21T05:47:30;13.43;;;5.63;;
84307;SDS011;74486;52.070;5.128;2024-02-21T05:49:55;14.98;;;6.07;;
84307;SDS011;74486;52.070;5.128;2024-02-21T05:52:21;15.65;;;6.43;;
84307;SDS011;74486;52.070;5.128;2024-02-21T05:54:47;14.85;;;6.93;;
84307;SDS011;74486;52.070;5.128;2024-02-21T05:57:12;15.13;;;6.00;;
84307;SDS011;74486;52.070;5.128;2024-02-21T05:59:38;17.05;;;7.30;;
84307;SDS011;74486;52.070;5.128;2024-02-21T06:02:03;15.25;;;6.18;;
84307;SDS011;74486;52.070;5.128;2024-02-21T06:04:30;13.07;;;6.60;;
84307;SDS011;74486;52.070;5.128;2024-02-21T06:06:55;14.77;;;6.38;;
84307;SDS011;74486;52.070;5.128;2024-02-21T06:09:21;12.32;;;6.72;;
84307;SDS011;74486;52.070;5.128;2024-02-21T06:11:46;14.57;;;6.63;;
84307;SDS011;74486;52.070;5.128;2024-02-21T06:14:12;16.10;;;7.60;;
84307;SDS011;74486;52.070;5.128;2024-02-21T06:16:37;17.67;;;8.20;;
84307;SDS011;74486;52.070;5.128;2024-02-21T06:19:03;16.88;;;8.20;;
84307;SDS011;74486;52.070;5.128;2024-02-21T06:21:30;16.52;;;8.45;;
84307;SDS011;74486;52.070;5.128;2024-02-21T06:23:55;16.98;;;9.05;;
84307;SDS011;74486;52.070;5.128;2024-02-21T06:26:21;16.05;;;9.25;;
84307;SDS011;74486;52.070;5.128;2024-02-21T06:28:46;16.48;;;8.90;;
84307;SDS011;74486;52.070;5.128;2024-02-21T06:31:12;19.23;;;8.63;;
84307;SDS011;74486;52.070;5.128;2024-02-21T06:33:38;18.42;;;8.55;;
84307;SDS011;74486;52.070;5.128;2024-02-21T06:36:06;15.75;;;8.48;;
84307;SDS011;74486;52.070;5.128;2024-02-21T06:38:33;16.70;;;8.55;;
84307;SDS011;74486;52.070;5.128;2024-02-21T06:40:59;21.88;;;8.13;;
84307;SDS011;74486;52.070;5.128;2024-02-21T06:43:24;19.15;;;9.77;;
84307;SDS011;74486;52.070;5.128;2024-02-21T06:45:50;15.23;;;8.65;;
84307;SDS011;74486;52.070;5.128;2024-02-21T06:48:16;16.85;;;7.80;;
84307;SDS011;74486;52.070;5.128;2024-02-21T06:50:42;17.75;;;8.82;;
84307;SDS011;74486;52.070;5.128;2024-02-21T06:53:07;21.75;;;9.93;;
84307;SDS011;74486;52.070;5.128;2024-02-21T06:55:34;19.13;;;8.98;;
84307;SDS011;74486;52.070;5.128;2024-02-21T06:58:00;18.38;;;8.95;;
84307;SDS011;74486;52.070;5.128;2024-02-21T07:00:25;21.40;;;8.65;;
84307;SDS011;74486;52.070;5.128;2024-02-21T07:02:51;18.85;;;7.85;;
84307;SDS011;74486;52.070;5.128;2024-02-21T07:05:16;18.17;;;8.35;;
84307;SDS011;74486;52.070;5.128;2024-02-21T07:07:42;15.93;;;7.72;;
84307;SDS011;74486;52.070;5.128;2024-02-21T07:10:07;19.02;;;8.05;;
84307;SDS011;74486;52.070;5.128;2024-02-21T07:12:35;22.20;;;9.02;;
84307;SDS011;74486;52.070;5.128;2024-02-21T07:15:00;18.98;;;7.90;;
84307;SDS011;74486;52.070;5.128;2024-02-21T07:17:25;18.58;;;8.55;;
84307;SDS011;74486;52.070;5.128;2024-02-21T07:19:51;19.38;;;8.68;;
84307;SDS011;74486;52.070;5.128;2024-02-21T07:22:16;23.30;;;9.27;;
84307;SDS011;74486;52.070;5.128;2024-02-21T07:24:42;21.83;;;9.20;;
84307;SDS011;74486;52.070;5.128;2024-02-21T07:27:07;21.70;;;9.20;;
84307;SDS011;74486;52.070;5.128;2024-02-21T07:29:34;19.90;;;9.00;;
84307;SDS011;74486;52.070;5.128;2024-02-21T07:32:01;23.02;;;8.68;;
84307;SDS011;74486;52.070;5.128;2024-02-21T07:34:26;19.77;;;8.45;;
84307;SDS011;74486;52.070;5.128;2024-02-21T07:36:51;18.77;;;8.10;;
84307;SDS011;74486;52.070;5.128;2024-02-21T07:39:17;25.92;;;11.23;;
84307;SDS011;74486;52.070;5.128;2024-02-21T07:41:42;20.05;;;9.55;;
84307;SDS011;74486;52.070;5.128;2024-02-21T07:44:08;19.30;;;8.48;;
84307;SDS011;74486;52.070;5.128;2024-02-21T07:46:35;19.50;;;8.73;;
84307;SDS011;74486;52.070;5.128;2024-02-21T07:49:00;18.60;;;8.07;;
84307;SDS011;74486;52.070;5.128;2024-02-21T07:51:27;16.80;;;8.13;;
84307;SDS011;74486;52.070;5.128;2024-02-21T07:53:52;22.25;;;10.10;;
84307;SDS011;74486;52.070;5.128;2024-02-21T07:56:18;19.20;;;8.70;;
84307;SDS011;74486;52.070;5.128;2024-02-21T07:58:43;23.60;;;8.70;;
84307;SDS011;74486;52.070;5.128;2024-02-21T08:01:09;18.33;;;8.65;;
84307;SDS011;74486;52.070;5.128;2024-02-21T08:03:36;17.95;;;9.20;;
84307;SDS011;74486;52.070;5.128;2024-02-21T08:06:02;20.58;;;9.27;;
84307;SDS011;74486;52.070;5.128;2024-02-21T08:08:28;21.38;;;9.68;;
84307;SDS011;74486;52.070;5.128;2024-02-21T08:10:54;15.52;;;8.02;;
84307;SDS011;74486;52.070;5.128;2024-02-21T08:13:19;24.27;;;9.73;;
84307;SDS011;74486;52.070;5.128;2024-02-21T08:15:46;21.67;;;9.75;;
84307;SDS011;74486;52.070;5.128;2024-02-21T08:18:11;13.25;;;7.47;;
84307;SDS011;74486;52.070;5.128;2024-02-21T08:20:38;19.10;;;8.25;;
84307;SDS011;74486;52.070;5.128;2024-02-21T08:23:04;23.30;;;9.13;;
84307;SDS011;74486;52.070;5.128;2024-02-21T08:25:29;20.88;;;9.25;;
84307;SDS011;74486;52.070;5.128;2024-02-21T08:27:57;16.42;;;7.32;;
84307;SDS011;74486;52.070;5.128;2024-02-21T08:32:48;20.30;;;8.80;;
84307;SDS011;74486;52.070;5.128;2024-02-21T08:35:14;19.20;;;8.80;;
84307;SDS011;74486;52.070;5.128;2024-02-21T08:37:41;21.20;;;9.35;;
84307;SDS011;74486;52.070;5.128;2024-02-21T08:40:06;18.08;;;8.57;;
84307;SDS011;74486;52.070;5.128;2024-02-21T08:42:32;25.88;;;9.68;;
84307;SDS011;74486;52.070;5.128;2024-02-21T08:44:58;18.48;;;8.68;;
84307;SDS011;74486;52.070;5.128;2024-02-21T08:47:23;17.92;;;9.18;;
84307;SDS011;74486;52.070;5.128;2024-02-21T08:49:48;20.95;;;11.13;;
84307;SDS011;74486;52.070;5.128;2024-02-21T08:52:14;22.88;;;10.00;;
84307;SDS011;74486;52.070;5.128;2024-02-21T08:54:43;17.75;;;9.02;;
84307;SDS011;74486;52.070;5.128;2024-02-21T08:57:09;23.70;;;9.27;;
84307;SDS011;74486;52.070;5.128;2024-02-21T08:59:34;15.68;;;8.75;;
84307;SDS011;74486;52.070;5.128;2024-02-21T09:01:59;18.02;;;8.75;;
84307;SDS011;74486;52.070;5.128;2024-02-21T09:04:25;17.42;;;9.25;;
84307;SDS011;74486;52.070;5.128;2024-02-21T09:06:50;20.35;;;8.45;;
84307;SDS011;74486;52.070;5.128;2024-02-21T09:09:16;13.23;;;7.72;;
84307;SDS011;74486;52.070;5.128;2024-02-21T09:11:43;19.38;;;7.97;;
84307;SDS011;74486;52.070;5.128;2024-02-21T09:14:08;17.30;;;7.80;;
84307;SDS011;74486;52.070;5.128;2024-02-21T09:16:34;16.17;;;7.88;;
84307;SDS011;74486;52.070;5.128;2024-02-21T09:18:59;16.08;;;7.70;;
84307;SDS011;74486;52.070;5.128;2024-02-21T09:21:25;16.70;;;6.18;;
84307;SDS011;74486;52.070;5.128;2024-02-21T09:23:50;14.60;;;6.95;;
84307;SDS011;74486;52.070;5.128;2024-02-21T09:26:16;15.30;;;6.88;;
84307;SDS011;74486;52.070;5.128;2024-02-21T09:28:42;13.23;;;7.00;;
84307;SDS011;74486;52.070;5.128;2024-02-21T09:31:08;16.90;;;6.95;;
84307;SDS011;74486;52.070;5.128;2024-02-21T09:33:34;12.50;;;6.60;;
84307;SDS011;74486;52.070;5.128;2024-02-21T09:35:59;17.15;;;6.82;;
84307;SDS011;74486;52.070;5.128;2024-02-21T09:38:25;13.07;;;6.32;;
84307;SDS011;74486;52.070;5.128;2024-02-21T09:40:52;14.10;;;7.00;;
84307;SDS011;74486;52.070;5.128;2024-02-21T09:43:23;15.18;;;6.75;;
84307;SDS011;74486;52.070;5.128;2024-02-21T09:45:50;13.18;;;6.07;;
84307;SDS011;74486;52.070;5.128;2024-02-21T09:48:23;10.45;;;5.50;;
84307;SDS011;74486;52.070;5.128;2024-02-21T09:50:56;12.05;;;6.28;;
84307;SDS011;74486;52.070;5.128;2024-02-21T09:53:24;12.07;;;5.65;;
84307;SDS011;74486;52.070;5.128;2024-02-21T09:55:50;10.88;;;5.65;;
84307;SDS011;74486;52.070;5.128;2024-02-21T09:58:16;11.45;;;5.32;;
84307;SDS011;74486;52.070;5.128;2024-02-21T10:00:41;13.75;;;6.03;;
84307;SDS011;74486;52.070;5.128;2024-02-21T10:03:08;11.50;;;5.25;;
84307;SDS011;74486;52.070;5.128;2024-02-21T10:05:34;15.73;;;5.50;;
84307;SDS011;74486;52.070;5.128;2024-02-21T10:08:00;11.20;;;5.70;;
84307;SDS011;74486;52.070;5.128;2024-02-21T10:10:25;14.10;;;4.93;;
84307;SDS011;74486;52.070;5.128;2024-02-21T10:12:51;10.20;;;6.10;;
84307;SDS011;74486;52.070;5.128;2024-02-21T10:15:19;11.90;;;5.95;;
84307;SDS011;74486;52.070;5.128;2024-02-21T10:17:45;11.10;;;5.07;;
84307;SDS011;74486;52.070;5.128;2024-02-21T10:20:12;10.45;;;5.25;;
84307;SDS011;74486;52.070;5.128;2024-02-21T10:22:38;9.68;;;5.18;;
84307;SDS011;74486;52.070;5.128;2024-02-21T10:25:06;10.63;;;5.30;;
84307;SDS011;74486;52.070;5.128;2024-02-21T10:27:32;10.57;;;4.65;;
84307;SDS011;74486;52.070;5.128;2024-02-21T10:29:58;13.63;;;4.85;;
84307;SDS011;74486;52.070;5.128;2024-02-21T10:32:24;8.88;;;4.57;;
84307;SDS011;74486;52.070;5.128;2024-02-21T10:34:49;9.20;;;4.28;;
84307;SDS011;74486;52.070;5.128;2024-02-21T10:37:16;12.45;;;4.78;;
84307;SDS011;74486;52.070;5.128;2024-02-21T10:39:41;10.52;;;4.97;;
84307;SDS011;74486;52.070;5.128;2024-02-21T10:42:07;6.47;;;4.13;;
84307;SDS011;74486;52.070;5.128;2024-02-21T10:44:36;7.15;;;4.22;;
84307;SDS011;74486;52.070;5.128;2024-02-21T10:47:03;8.98;;;4.13;;
84307;SDS011;74486;52.070;5.128;2024-02-21T10:49:33;7.80;;;4.47;;
84307;SDS011;74486;52.070;5.128;2024-02-21T10:52:06;8.90;;;4.18;;
84307;SDS011;74486;52.070;5.128;2024-02-21T10:54:43;11.23;;;3.90;;
84307;SDS011;74486;52.070;5.128;2024-02-21T10:57:10;8.90;;;3.92;;
84307;SDS011;74486;52.070;5.128;2024-02-21T10:59:38;7.38;;;4.07;;
84307;SDS011;74486;52.070;5.128;2024-02-21T11:02:05;8.88;;;4.30;;
84307;SDS011;74486;52.070;5.128;2024-02-21T11:04:30;7.82;;;4.45;;
84307;SDS011;74486;52.070;5.128;2024-02-21T11:06:57;6.85;;;3.95;;
84307;SDS011;74486;52.070;5.128;2024-02-21T11:09:29;6.60;;;4.03;;
84307;SDS011;74486;52.070;5.128;2024-02-21T11:11:56;9.88;;;5.15;;
84307;SDS011;74486;52.070;5.128;2024-02-21T11:14:22;8.48;;;5.10;;
84307;SDS011;74486;52.070;5.128;2024-02-21T11:16:51;12.18;;;5.20;;
84307;SDS011;74486;52.070;5.128;2024-02-21T11:19:20;8.27;;;5.00;;
84307;SDS011;74486;52.070;5.128;2024-02-21T11:21:46;11.38;;;5.97;;
84307;SDS011;74486;52.070;5.128;2024-02-21T11:24:12;10.07;;;5.72;;
84307;SDS011;74486;52.070;5.128;2024-02-21T11:26:37;11.07;;;6.13;;
84307;SDS011;74486;52.070;5.128;2024-02-21T11:29:04;8.32;;;5.35;;
84307;SDS011;74486;52.070;5.128;2024-02-21T11:31:38;10.82;;;6.13;;
84307;SDS011;74486;52.070;5.128;2024-02-21T11:34:03;11.88;;;6.32;;
84307;SDS011;74486;52.070;5.128;2024-02-21T11:36:29;13.10;;;6.05;;
84307;SDS011;74486;52.070;5.128;2024-02-21T11:38:54;13.25;;;7.43;;
84307;SDS011;74486;52.070;5.128;2024-02-21T11:41:28;13.10;;;7.15;;
84307;SDS011;74486;52.070;5.128;2024-02-21T11:43:54;11.30;;;6.18;;
84307;SDS011;74486;52.070;5.128;2024-02-21T11:46:21;11.45;;;6.38;;
84307;SDS011;74486;52.070;5.128;2024-02-21T11:48:46;13.88;;;7.13;;
84307;SDS011;74486;52.070;5.128;2024-02-21T11:51:12;10.35;;;6.72;;
84307;SDS011;74486;52.070;5.128;2024-02-21T11:53:46;12.65;;;6.97;;
84307;SDS011;74486;52.070;5.128;2024-02-21T11:56:13;10.82;;;6.07;;
84307;SDS011;74486;52.070;5.128;2024-02-21T11:58:38;8.23;;;4.88;;
84307;SDS011;74486;52.070;5.128;2024-02-21T12:01:04;8.45;;;5.63;;
84307;SDS011;74486;52.070;5.128;2024-02-21T12:03:31;10.50;;;5.78;;
84307;SDS011;74486;52.070;5.128;2024-02-21T12:05:57;10.52;;;5.32;;
84307;SDS011;74486;52.070;5.128;2024-02-21T12:08:22;8.07;;;5.00;;
84307;SDS011;74486;52.070;5.128;2024-02-21T12:10:48;8.10;;;5.07;;
84307;SDS011;74486;52.070;5.128;2024-02-21T12:13:14;10.40;;;5.38;;
84307;SDS011;74486;52.070;5.128;2024-02-21T12:15:39;9.38;;;5.18;;
84307;SDS011;74486;52.070;5.128;2024-02-21T12:18:04;9.30;;;5.32;;
84307;SDS011;74486;52.070;5.128;2024-02-21T12:20:31;6.88;;;4.80;;
84307;SDS011;74486;52.070;5.128;2024-02-21T12:22:59;12.50;;;5.28;;
84307;SDS011;74486;52.070;5.128;2024-02-21T12:27:50;9.30;;;5.13;;
84307;SDS011;74486;52.070;5.128;2024-02-21T12:30:16;8.70;;;4.47;;
84307;SDS011;74486;52.070;5.128;2024-02-21T12:32:41;7.65;;;4.75;;
84307;SDS011;74486;52.070;5.128;2024-02-21T12:35:07;10.80;;;4.70;;
84307;SDS011;74486;52.070;5.128;2024-02-21T12:37:34;10.05;;;4.32;;
84307;SDS011;74486;52.070;5.128;2024-02-21T12:40:00;9.25;;;5.00;;
84307;SDS011;74486;52.070;5.128;2024-02-21T12:42:25;6.55;;;3.88;;
84307;SDS011;74486;52.070;5.128;2024-02-21T12:44:51;5.93;;;3.85;;
84307;SDS011;74486;52.070;5.128;2024-02-21T12:47:17;9.98;;;4.43;;
84307;SDS011;74486;52.070;5.128;2024-02-21T12:49:42;7.05;;;4.50;;
84307;SDS011;74486;52.070;5.128;2024-02-21T12:52:08;6.80;;;4.30;;
84307;SDS011;74486;52.070;5.128;2024-02-21T12:54:35;7.53;;;4.72;;
84307;SDS011;74486;52.070;5.128;2024-02-21T12:57:01;9.60;;;4.53;;
84307;SDS011;74486;52.070;5.128;2024-02-21T12:59:26;9.40;;;3.85;;
84307;SDS011;74486;52.070;5.128;2024-02-21T13:01:52;7.75;;;4.53;;
84307;SDS011;74486;52.070;5.128;2024-02-21T13:04:17;5.82;;;3.85;;
84307;SDS011;74486;52.070;5.128;2024-02-21T13:06:43;8.02;;;4.00;;
84307;SDS011;74486;52.070;5.128;2024-02-21T13:09:08;11.20;;;4.32;;
84307;SDS011;74486;52.070;5.128;2024-02-21T13:11:35;6.40;;;4.35;;
84307;SDS011;74486;52.070;5.128;2024-02-21T13:14:00;9.48;;;4.55;;
84307;SDS011;74486;52.070;5.128;2024-02-21T13:16:26;5.93;;;3.67;;
84307;SDS011;74486;52.070;5.128;2024-02-21T13:18:51;7.13;;;3.90;;
84307;SDS011;74486;52.070;5.128;2024-02-21T13:21:17;6.95;;;3.58;;
84307;SDS011;74486;52.070;5.128;2024-02-21T13:23:42;6.60;;;3.53;;
84307;SDS011;74486;52.070;5.128;2024-02-21T13:26:08;5.22;;;3.20;;
84307;SDS011;74486;52.070;5.128;2024-02-21T13:28:35;8.82;;;3.40;;
84307;SDS011;74486;52.070;5.128;2024-02-21T13:31:00;5.75;;;3.53;;
84307;SDS011;74486;52.070;5.128;2024-02-21T13:33:26;5.57;;;3.22;;
84307;SDS011;74486;52.070;5.128;2024-02-21T13:35:51;8.30;;;3.85;;
84307;SDS011;74486;52.070;5.128;2024-02-21T13:38:17;6.65;;;2.95;;
84307;SDS011;74486;52.070;5.128;2024-02-21T13:40:42;7.50;;;3.75;;
84307;SDS011;74486;52.070;5.128;2024-02-21T13:43:08;8.60;;;3.70;;
84307;SDS011;74486;52.070;5.128;2024-02-21T13:45:35;6.75;;;3.70;;
84307;SDS011;74486;52.070;5.128;2024-02-21T13:48:00;8.75;;;4.13;;
84307;SDS011;74486;52.070;5.128;2024-02-21T13:52:55;8.80;;;3.22;;
84307;SDS011;74486;52.070;5.128;2024-02-21T13:55:20;7.70;;;4.28;;
84307;SDS011;74486;52.070;5.128;2024-02-21T13:57:46;7.22;;;3.80;;
84307;SDS011;74486;52.070;5.128;2024-02-21T14:00:12;5.38;;;3.65;;
84307;SDS011;74486;52.070;5.128;2024-02-21T14:02:39;9.15;;;3.97;;
84307;SDS011;74486;52.070;5.128;2024-02-21T14:05:05;7.75;;;3.97;;
84307;SDS011;74486;52.070;5.128;2024-02-21T14:07:31;7.53;;;3.90;;
84307;SDS011;74486;52.070;5.128;2024-02-21T14:09:56;5.63;;;3.33;;
84307;SDS011;74486;52.070;5.128;2024-02-21T14:12:22;7.93;;;4.47;;
84307;SDS011;74486;52.070;5.128;2024-02-21T14:14:47;7.25;;;3.72;;
84307;SDS011;74486;52.070;5.128;2024-02-21T14:17:13;8.57;;;3.50;;
84307;SDS011;74486;52.070;5.128;2024-02-21T14:19:40;6.53;;;3.42;;
84307;SDS011;74486;52.070;5.128;2024-02-21T14:22:05;10.45;;;4.20;;
84307;SDS011;74486;52.070;5.128;2024-02-21T14:24:31;8.00;;;4.03;;
84307;SDS011;74486;52.070;5.128;2024-02-21T14:26:56;6.20;;;3.55;;
84307;SDS011;74486;52.070;5.128;2024-02-21T14:29:22;6.30;;;4.32;;
84307;SDS011;74486;52.070;5.128;2024-02-21T14:31:47;6.28;;;4.07;;
84307;SDS011;74486;52.070;5.128;2024-02-21T14:34:13;6.65;;;3.78;;
84307;SDS011;74486;52.070;5.128;2024-02-21T14:36:40;6.53;;;2.92;;
84307;SDS011;74486;52.070;5.128;2024-02-21T14:39:05;7.70;;;3.28;;